sensor_id;sensor_type;location;lat;lon;timestamp;P1;durP1;ratioP1;P2;durP2;ratioP2
26311;SDS011;14019;56.964;24.016;2023-11-21T00:01:23;28.15;;;12.07;;
26311;SDS011;14019;56.964;24.016;2023-11-21T00:04:09;26.98;;;11.68;;
26311;SDS011;14019;56.964;24.016;2023-11-21T00:06:56;26.80;;;11.23;;
26311;SDS011;14019;56.964;24.016;2023-11-21T00:09:43;25.90;;;11.13;;
26311;SDS011;14019;56.964;24.016;2023-11-21T00:12:29;24.25;;;10.77;;
26311;SDS011;14019;56.964;24.016;2023-11-21T00:15:16;24.45;;;10.38;;
26311;SDS011;14019;56.964;24.016;2023-11-21T00:18:03;27.85;;;11.18;;
26311;SDS011;14019;56.964;24.016;2023-11-21T00:20:49;25.75;;;10.32;;
26311;SDS011;14019;56.964;24.016;2023-11-21T00:23:36;28.35;;;11.25;;
26311;SDS011;14019;56.964;24.016;2023-11-21T00:26:22;28.02;;;10.98;;
26311;SDS011;14019;56.964;24.016;2023-11-21T00:29:19;24.42;;;10.25;;
26311;SDS011;14019;56.964;24.016;2023-11-21T00:32:05;27.27;;;10.32;;
26311;SDS011;14019;56.964;24.016;2023-11-21T00:34:51;22.77;;;10.13;;
26311;SDS011;14019;56.964;24.016;2023-11-21T00:37:40;25.05;;;9.73;;
26311;SDS011;14019;56.964;24.016;2023-11-21T00:40:28;26.02;;;9.93;;
26311;SDS011;14019;56.964;24.016;2023-11-21T00:43:14;23.17;;;9.80;;
26311;SDS011;14019;56.964;24.016;2023-11-21T00:46:03;25.27;;;10.40;;
26311;SDS011;14019;56.964;24.016;2023-11-21T00:49:03;25.15;;;10.38;;
26311;SDS011;14019;56.964;24.016;2023-11-21T00:51:50;26.98;;;10.15;;
26311;SDS011;14019;56.964;24.016;2023-11-21T00:54:36;25.70;;;10.15;;
26311;SDS011;14019;56.964;24.016;2023-11-21T00:57:22;28.95;;;10.43;;
26311;SDS011;14019;56.964;24.016;2023-11-21T01:00:09;26.42;;;10.55;;
26311;SDS011;14019;56.964;24.016;2023-11-21T01:03:02;24.02;;;10.55;;
26311;SDS011;14019;56.964;24.016;2023-11-21T01:05:48;26.58;;;10.65;;
26311;SDS011;14019;56.964;24.016;2023-11-21T01:08:35;28.13;;;11.07;;
26311;SDS011;14019;56.964;24.016;2023-11-21T01:11:21;25.98;;;10.43;;
26311;SDS011;14019;56.964;24.016;2023-11-21T01:14:08;24.70;;;10.15;;
26311;SDS011;14019;56.964;24.016;2023-11-21T01:16:55;25.02;;;9.90;;
26311;SDS011;14019;56.964;24.016;2023-11-21T01:19:42;22.88;;;9.68;;
26311;SDS011;14019;56.964;24.016;2023-11-21T01:22:29;24.05;;;10.15;;
26311;SDS011;14019;56.964;24.016;2023-11-21T01:25:17;25.10;;;10.40;;
26311;SDS011;14019;56.964;24.016;2023-11-21T01:28:03;25.30;;;10.90;;
26311;SDS011;14019;56.964;24.016;2023-11-21T01:30:49;28.83;;;11.43;;
26311;SDS011;14019;56.964;24.016;2023-11-21T01:33:37;39.83;;;14.98;;
26311;SDS011;14019;56.964;24.016;2023-11-21T01:36:34;36.92;;;14.32;;
26311;SDS011;14019;56.964;24.016;2023-11-21T01:39:20;28.77;;;11.98;;
26311;SDS011;14019;56.964;24.016;2023-11-21T01:42:09;28.33;;;11.23;;
26311;SDS011;14019;56.964;24.016;2023-11-21T01:44:59;29.98;;;11.70;;
26311;SDS011;14019;56.964;24.016;2023-11-21T01:47:45;25.35;;;10.95;;
26311;SDS011;14019;56.964;24.016;2023-11-21T01:50:32;32.28;;;11.50;;
26311;SDS011;14019;56.964;24.016;2023-11-21T01:53:18;27.63;;;11.50;;
26311;SDS011;14019;56.964;24.016;2023-11-21T01:56:07;28.30;;;11.20;;
26311;SDS011;14019;56.964;24.016;2023-11-21T01:58:56;27.42;;;11.35;;
26311;SDS011;14019;56.964;24.016;2023-11-21T02:01:42;28.25;;;11.40;;
26311;SDS011;14019;56.964;24.016;2023-11-21T02:04:29;36.38;;;13.35;;
26311;SDS011;14019;56.964;24.016;2023-11-21T02:07:16;31.05;;;13.50;;
26311;SDS011;14019;56.964;24.016;2023-11-21T02:10:05;31.15;;;13.63;;
26311;SDS011;14019;56.964;24.016;2023-11-21T02:12:51;36.10;;;14.00;;
26311;SDS011;14019;56.964;24.016;2023-11-21T02:15:38;34.33;;;13.25;;
26311;SDS011;14019;56.964;24.016;2023-11-21T02:18:26;33.60;;;13.93;;
26311;SDS011;14019;56.964;24.016;2023-11-21T02:21:14;30.13;;;12.93;;
26311;SDS011;14019;56.964;24.016;2023-11-21T02:24:00;33.35;;;13.55;;
26311;SDS011;14019;56.964;24.016;2023-11-21T02:26:47;32.97;;;12.93;;
26311;SDS011;14019;56.964;24.016;2023-11-21T02:29:33;30.90;;;12.63;;
26311;SDS011;14019;56.964;24.016;2023-11-21T02:32:20;31.30;;;12.32;;
26311;SDS011;14019;56.964;24.016;2023-11-21T02:35:08;31.05;;;12.23;;
26311;SDS011;14019;56.964;24.016;2023-11-21T02:37:55;32.53;;;12.90;;
26311;SDS011;14019;56.964;24.016;2023-11-21T02:40:42;30.55;;;12.43;;
26311;SDS011;14019;56.964;24.016;2023-11-21T02:43:29;29.95;;;12.15;;
26311;SDS011;14019;56.964;24.016;2023-11-21T02:46:15;24.85;;;11.25;;
26311;SDS011;14019;56.964;24.016;2023-11-21T02:49:02;31.33;;;11.35;;
26311;SDS011;14019;56.964;24.016;2023-11-21T02:51:49;26.23;;;10.10;;
26311;SDS011;14019;56.964;24.016;2023-11-21T02:54:35;24.33;;;10.18;;
26311;SDS011;14019;56.964;24.016;2023-11-21T02:57:21;22.20;;;10.18;;
26311;SDS011;14019;56.964;24.016;2023-11-21T03:00:07;21.75;;;10.38;;
26311;SDS011;14019;56.964;24.016;2023-11-21T03:02:55;26.70;;;10.00;;
26311;SDS011;14019;56.964;24.016;2023-11-21T03:05:43;22.95;;;10.15;;
26311;SDS011;14019;56.964;24.016;2023-11-21T03:08:29;22.40;;;9.57;;
26311;SDS011;14019;56.964;24.016;2023-11-21T03:11:15;26.17;;;9.60;;
26311;SDS011;14019;56.964;24.016;2023-11-21T03:14:02;19.63;;;8.50;;
26311;SDS011;14019;56.964;24.016;2023-11-21T03:16:49;18.58;;;8.23;;
26311;SDS011;14019;56.964;24.016;2023-11-21T03:19:35;20.40;;;7.88;;
26311;SDS011;14019;56.964;24.016;2023-11-21T03:22:21;19.52;;;7.63;;
26311;SDS011;14019;56.964;24.016;2023-11-21T03:25:07;18.45;;;7.70;;
26311;SDS011;14019;56.964;24.016;2023-11-21T03:27:57;17.35;;;7.25;;
26311;SDS011;14019;56.964;24.016;2023-11-21T03:30:43;17.35;;;7.60;;
26311;SDS011;14019;56.964;24.016;2023-11-21T03:33:29;16.50;;;6.93;;
26311;SDS011;14019;56.964;24.016;2023-11-21T03:36:15;19.25;;;7.82;;
26311;SDS011;14019;56.964;24.016;2023-11-21T03:39:03;15.93;;;7.28;;
26311;SDS011;14019;56.964;24.016;2023-11-21T03:41:50;16.50;;;7.35;;
26311;SDS011;14019;56.964;24.016;2023-11-21T03:44:37;18.40;;;7.50;;
26311;SDS011;14019;56.964;24.016;2023-11-21T03:47:23;16.55;;;7.10;;
26311;SDS011;14019;56.964;24.016;2023-11-21T03:50:09;15.88;;;7.15;;
26311;SDS011;14019;56.964;24.016;2023-11-21T03:52:55;24.15;;;7.22;;
26311;SDS011;14019;56.964;24.016;2023-11-21T03:55:42;16.23;;;6.53;;
26311;SDS011;14019;56.964;24.016;2023-11-21T03:58:29;17.15;;;6.82;;
26311;SDS011;14019;56.964;24.016;2023-11-21T04:01:20;15.10;;;6.78;;
26311;SDS011;14019;56.964;24.016;2023-11-21T04:04:07;16.60;;;7.07;;
26311;SDS011;14019;56.964;24.016;2023-11-21T04:06:53;18.98;;;7.75;;
26311;SDS011;14019;56.964;24.016;2023-11-21T04:09:40;16.77;;;7.47;;
26311;SDS011;14019;56.964;24.016;2023-11-21T04:12:26;15.35;;;6.43;;
26311;SDS011;14019;56.964;24.016;2023-11-21T04:15:13;15.82;;;6.90;;
26311;SDS011;14019;56.964;24.016;2023-11-21T04:18:00;14.90;;;6.63;;
26311;SDS011;14019;56.964;24.016;2023-11-21T04:20:46;17.08;;;6.70;;
26311;SDS011;14019;56.964;24.016;2023-11-21T04:23:33;15.27;;;6.30;;
26311;SDS011;14019;56.964;24.016;2023-11-21T04:26:19;17.30;;;6.45;;
26311;SDS011;14019;56.964;24.016;2023-11-21T04:29:06;14.02;;;6.00;;
26311;SDS011;14019;56.964;24.016;2023-11-21T04:31:52;15.55;;;5.97;;
26311;SDS011;14019;56.964;24.016;2023-11-21T04:34:38;15.70;;;6.20;;
26311;SDS011;14019;56.964;24.016;2023-11-21T04:37:24;17.45;;;6.47;;
26311;SDS011;14019;56.964;24.016;2023-11-21T04:40:11;15.77;;;6.00;;
26311;SDS011;14019;56.964;24.016;2023-11-21T04:42:57;15.23;;;5.80;;
26311;SDS011;14019;56.964;24.016;2023-11-21T04:45:44;17.05;;;6.28;;
26311;SDS011;14019;56.964;24.016;2023-11-21T04:48:30;14.10;;;6.30;;
26311;SDS011;14019;56.964;24.016;2023-11-21T04:51:16;16.35;;;6.10;;
26311;SDS011;14019;56.964;24.016;2023-11-21T04:54:03;14.57;;;6.00;;
26311;SDS011;14019;56.964;24.016;2023-11-21T04:56:51;14.70;;;6.63;;
26311;SDS011;14019;56.964;24.016;2023-11-21T04:59:37;15.65;;;6.32;;
26311;SDS011;14019;56.964;24.016;2023-11-21T05:02:23;13.43;;;5.68;;
26311;SDS011;14019;56.964;24.016;2023-11-21T05:05:19;13.85;;;5.72;;
26311;SDS011;14019;56.964;24.016;2023-11-21T05:08:05;15.70;;;5.97;;
26311;SDS011;14019;56.964;24.016;2023-11-21T05:10:52;21.08;;;6.75;;
26311;SDS011;14019;56.964;24.016;2023-11-21T05:13:38;15.07;;;6.85;;
26311;SDS011;14019;56.964;24.016;2023-11-21T05:16:27;16.08;;;6.93;;
26311;SDS011;14019;56.964;24.016;2023-11-21T05:19:14;17.88;;;6.70;;
26311;SDS011;14019;56.964;24.016;2023-11-21T05:22:01;13.80;;;6.50;;
26311;SDS011;14019;56.964;24.016;2023-11-21T05:24:47;18.48;;;6.93;;
26311;SDS011;14019;56.964;24.016;2023-11-21T05:27:34;17.80;;;6.85;;
26311;SDS011;14019;56.964;24.016;2023-11-21T05:30:21;18.05;;;7.35;;
26311;SDS011;14019;56.964;24.016;2023-11-21T05:33:07;20.10;;;7.68;;
26311;SDS011;14019;56.964;24.016;2023-11-21T05:35:53;19.75;;;7.78;;
26311;SDS011;14019;56.964;24.016;2023-11-21T05:38:39;27.15;;;8.05;;
26311;SDS011;14019;56.964;24.016;2023-11-21T05:41:26;19.13;;;7.15;;
26311;SDS011;14019;56.964;24.016;2023-11-21T05:44:13;19.13;;;7.38;;
26311;SDS011;14019;56.964;24.016;2023-11-21T05:46:59;19.65;;;7.68;;
26311;SDS011;14019;56.964;24.016;2023-11-21T05:49:46;20.23;;;7.47;;
26311;SDS011;14019;56.964;24.016;2023-11-21T05:52:38;19.85;;;7.70;;
26311;SDS011;14019;56.964;24.016;2023-11-21T05:55:25;20.67;;;7.53;;
26311;SDS011;14019;56.964;24.016;2023-11-21T05:58:11;20.00;;;7.78;;
26311;SDS011;14019;56.964;24.016;2023-11-21T06:00:59;19.33;;;6.90;;
26311;SDS011;14019;56.964;24.016;2023-11-21T06:03:46;18.70;;;7.13;;
26311;SDS011;14019;56.964;24.016;2023-11-21T06:06:33;23.08;;;7.45;;
26311;SDS011;14019;56.964;24.016;2023-11-21T06:09:19;18.63;;;7.13;;
26311;SDS011;14019;56.964;24.016;2023-11-21T06:12:06;20.92;;;7.50;;
26311;SDS011;14019;56.964;24.016;2023-11-21T06:14:54;20.65;;;7.75;;
26311;SDS011;14019;56.964;24.016;2023-11-21T06:17:41;21.17;;;7.82;;
26311;SDS011;14019;56.964;24.016;2023-11-21T06:20:28;29.08;;;8.82;;
26311;SDS011;14019;56.964;24.016;2023-11-21T06:23:14;26.48;;;8.10;;
26311;SDS011;14019;56.964;24.016;2023-11-21T06:26:01;23.70;;;8.05;;
26311;SDS011;14019;56.964;24.016;2023-11-21T06:28:50;27.20;;;8.85;;
26311;SDS011;14019;56.964;24.016;2023-11-21T06:31:36;23.77;;;8.63;;
26311;SDS011;14019;56.964;24.016;2023-11-21T06:34:23;31.38;;;9.93;;
26311;SDS011;14019;56.964;24.016;2023-11-21T06:37:09;27.60;;;9.70;;
26311;SDS011;14019;56.964;24.016;2023-11-21T06:39:56;29.60;;;10.35;;
26311;SDS011;14019;56.964;24.016;2023-11-21T06:42:43;28.75;;;8.55;;
26311;SDS011;14019;56.964;24.016;2023-11-21T06:45:30;22.98;;;9.20;;
26311;SDS011;14019;56.964;24.016;2023-11-21T06:48:16;25.45;;;9.32;;
26311;SDS011;14019;56.964;24.016;2023-11-21T06:51:05;28.80;;;10.10;;
26311;SDS011;14019;56.964;24.016;2023-11-21T06:53:52;31.00;;;9.65;;
26311;SDS011;14019;56.964;24.016;2023-11-21T06:56:38;24.20;;;8.82;;
26311;SDS011;14019;56.964;24.016;2023-11-21T06:59:25;23.48;;;8.27;;
26311;SDS011;14019;56.964;24.016;2023-11-21T07:02:11;27.38;;;9.77;;
26311;SDS011;14019;56.964;24.016;2023-11-21T07:04:59;28.10;;;8.65;;
26311;SDS011;14019;56.964;24.016;2023-11-21T07:07:45;22.80;;;9.93;;
26311;SDS011;14019;56.964;24.016;2023-11-21T07:10:33;25.10;;;9.43;;
26311;SDS011;14019;56.964;24.016;2023-11-21T07:13:20;26.92;;;9.38;;
26311;SDS011;14019;56.964;24.016;2023-11-21T07:16:07;28.55;;;9.65;;
26311;SDS011;14019;56.964;24.016;2023-11-21T07:18:54;25.55;;;9.90;;
26311;SDS011;14019;56.964;24.016;2023-11-21T07:21:41;31.80;;;10.38;;
26311;SDS011;14019;56.964;24.016;2023-11-21T07:24:50;29.55;;;10.85;;
26311;SDS011;14019;56.964;24.016;2023-11-21T07:27:37;33.22;;;11.82;;
26311;SDS011;14019;56.964;24.016;2023-11-21T07:30:23;38.67;;;12.43;;
26311;SDS011;14019;56.964;24.016;2023-11-21T07:33:10;35.70;;;12.60;;
26311;SDS011;14019;56.964;24.016;2023-11-21T07:36:00;37.35;;;12.70;;
26311;SDS011;14019;56.964;24.016;2023-11-21T07:38:46;46.92;;;13.93;;
26311;SDS011;14019;56.964;24.016;2023-11-21T07:41:33;33.45;;;12.68;;
26311;SDS011;14019;56.964;24.016;2023-11-21T07:44:19;29.95;;;9.93;;
26311;SDS011;14019;56.964;24.016;2023-11-21T07:47:08;23.60;;;9.32;;
26311;SDS011;14019;56.964;24.016;2023-11-21T07:49:56;22.67;;;9.05;;
26311;SDS011;14019;56.964;24.016;2023-11-21T07:52:42;26.40;;;9.18;;
26311;SDS011;14019;56.964;24.016;2023-11-21T07:55:28;23.50;;;8.32;;
26311;SDS011;14019;56.964;24.016;2023-11-21T07:58:17;24.63;;;9.77;;
26311;SDS011;14019;56.964;24.016;2023-11-21T08:01:04;22.50;;;7.60;;
26311;SDS011;14019;56.964;24.016;2023-11-21T08:03:50;15.50;;;7.05;;
26311;SDS011;14019;56.964;24.016;2023-11-21T08:06:38;23.60;;;7.50;;
26311;SDS011;14019;56.964;24.016;2023-11-21T08:09:24;18.52;;;6.85;;
26311;SDS011;14019;56.964;24.016;2023-11-21T08:12:10;19.35;;;7.13;;
26311;SDS011;14019;56.964;24.016;2023-11-21T08:14:56;26.17;;;7.07;;
26311;SDS011;14019;56.964;24.016;2023-11-21T08:17:43;26.33;;;6.80;;
26311;SDS011;14019;56.964;24.016;2023-11-21T08:20:29;18.20;;;7.30;;
26311;SDS011;14019;56.964;24.016;2023-11-21T08:23:15;21.92;;;7.63;;
26311;SDS011;14019;56.964;24.016;2023-11-21T08:26:02;22.00;;;8.38;;
26311;SDS011;14019;56.964;24.016;2023-11-21T08:28:50;18.88;;;7.47;;
26311;SDS011;14019;56.964;24.016;2023-11-21T08:31:42;22.75;;;8.30;;
26311;SDS011;14019;56.964;24.016;2023-11-21T08:34:29;22.08;;;8.50;;
26311;SDS011;14019;56.964;24.016;2023-11-21T08:37:16;21.88;;;8.75;;
26311;SDS011;14019;56.964;24.016;2023-11-21T08:40:03;25.05;;;8.95;;
26311;SDS011;14019;56.964;24.016;2023-11-21T08:42:49;26.80;;;8.10;;
26311;SDS011;14019;56.964;24.016;2023-11-21T08:45:37;26.25;;;8.32;;
26311;SDS011;14019;56.964;24.016;2023-11-21T08:48:24;21.27;;;8.18;;
26311;SDS011;14019;56.964;24.016;2023-11-21T08:51:10;17.90;;;7.60;;
26311;SDS011;14019;56.964;24.016;2023-11-21T08:53:57;25.77;;;8.95;;
26311;SDS011;14019;56.964;24.016;2023-11-21T08:56:46;21.90;;;8.13;;
26311;SDS011;14019;56.964;24.016;2023-11-21T08:59:32;18.17;;;8.00;;
26311;SDS011;14019;56.964;24.016;2023-11-21T09:02:18;22.15;;;9.10;;
26311;SDS011;14019;56.964;24.016;2023-11-21T09:05:05;20.80;;;8.45;;
26311;SDS011;14019;56.964;24.016;2023-11-21T09:07:51;24.38;;;9.38;;
26311;SDS011;14019;56.964;24.016;2023-11-21T09:10:37;23.65;;;9.18;;
26311;SDS011;14019;56.964;24.016;2023-11-21T09:13:25;21.27;;;9.35;;
26311;SDS011;14019;56.964;24.016;2023-11-21T09:16:11;27.60;;;9.85;;
26311;SDS011;14019;56.964;24.016;2023-11-21T09:18:58;26.17;;;10.38;;
26311;SDS011;14019;56.964;24.016;2023-11-21T09:21:47;26.95;;;10.73;;
26311;SDS011;14019;56.964;24.016;2023-11-21T09:24:33;32.38;;;12.05;;
26311;SDS011;14019;56.964;24.016;2023-11-21T09:27:22;35.38;;;12.20;;
26311;SDS011;14019;56.964;24.016;2023-11-21T09:30:08;38.80;;;14.25;;
26311;SDS011;14019;56.964;24.016;2023-11-21T09:32:56;50.10;;;15.15;;
26311;SDS011;14019;56.964;24.016;2023-11-21T09:35:44;42.83;;;16.33;;
26311;SDS011;14019;56.964;24.016;2023-11-21T09:38:30;41.92;;;16.38;;
26311;SDS011;14019;56.964;24.016;2023-11-21T09:41:28;37.83;;;13.95;;
26311;SDS011;14019;56.964;24.016;2023-11-21T09:44:22;35.13;;;14.82;;
26311;SDS011;14019;56.964;24.016;2023-11-21T09:47:12;33.90;;;13.43;;
26311;SDS011;14019;56.964;24.016;2023-11-21T09:50:01;36.63;;;13.43;;
26311;SDS011;14019;56.964;24.016;2023-11-21T09:55:35;28.20;;;11.18;;
26311;SDS011;14019;56.964;24.016;2023-11-21T09:58:24;30.05;;;11.38;;
26311;SDS011;14019;56.964;24.016;2023-11-21T10:01:10;27.25;;;10.88;;
26311;SDS011;14019;56.964;24.016;2023-11-21T10:03:58;27.00;;;10.27;;
26311;SDS011;14019;56.964;24.016;2023-11-21T10:06:45;34.83;;;10.43;;
26311;SDS011;14019;56.964;24.016;2023-11-21T10:09:33;25.83;;;10.93;;
26311;SDS011;14019;56.964;24.016;2023-11-21T10:12:19;20.83;;;9.10;;
26311;SDS011;14019;56.964;24.016;2023-11-21T10:15:07;25.48;;;9.43;;
26311;SDS011;14019;56.964;24.016;2023-11-21T10:17:55;29.10;;;9.80;;
26311;SDS011;14019;56.964;24.016;2023-11-21T10:20:42;21.25;;;9.13;;
26311;SDS011;14019;56.964;24.016;2023-11-21T10:23:31;29.75;;;9.52;;
26311;SDS011;14019;56.964;24.016;2023-11-21T10:26:17;25.08;;;9.25;;
26311;SDS011;14019;56.964;24.016;2023-11-21T10:29:15;25.85;;;8.90;;
26311;SDS011;14019;56.964;24.016;2023-11-21T10:32:04;29.63;;;9.30;;
26311;SDS011;14019;56.964;24.016;2023-11-21T10:34:56;25.13;;;9.18;;
26311;SDS011;14019;56.964;24.016;2023-11-21T10:37:45;22.85;;;9.60;;
26311;SDS011;14019;56.964;24.016;2023-11-21T10:40:46;25.15;;;9.40;;
26311;SDS011;14019;56.964;24.016;2023-11-21T10:43:34;26.67;;;9.73;;
26311;SDS011;14019;56.964;24.016;2023-11-21T10:46:20;32.10;;;10.25;;
26311;SDS011;14019;56.964;24.016;2023-11-21T10:49:09;27.75;;;11.32;;
26311;SDS011;14019;56.964;24.016;2023-11-21T10:51:56;29.88;;;11.85;;
26311;SDS011;14019;56.964;24.016;2023-11-21T10:54:45;26.02;;;11.45;;
26311;SDS011;14019;56.964;24.016;2023-11-21T10:57:31;33.35;;;11.65;;
26311;SDS011;14019;56.964;24.016;2023-11-21T11:00:17;33.33;;;11.02;;
26311;SDS011;14019;56.964;24.016;2023-11-21T11:03:07;28.13;;;11.38;;
26311;SDS011;14019;56.964;24.016;2023-11-21T11:06:02;31.60;;;11.30;;
26311;SDS011;14019;56.964;24.016;2023-11-21T11:08:48;28.77;;;11.45;;
26311;SDS011;14019;56.964;24.016;2023-11-21T11:11:35;24.33;;;10.70;;
26311;SDS011;14019;56.964;24.016;2023-11-21T11:14:24;24.25;;;10.07;;
26311;SDS011;14019;56.964;24.016;2023-11-21T11:17:11;24.58;;;9.70;;
26311;SDS011;14019;56.964;24.016;2023-11-21T11:19:58;24.50;;;9.93;;
26311;SDS011;14019;56.964;24.016;2023-11-21T11:28:50;19.85;;;8.40;;
26311;SDS011;14019;56.964;24.016;2023-11-21T11:31:46;19.23;;;8.63;;
26311;SDS011;14019;56.964;24.016;2023-11-21T11:34:35;16.88;;;7.90;;
26311;SDS011;14019;56.964;24.016;2023-11-21T11:37:23;17.90;;;7.22;;
26311;SDS011;14019;56.964;24.016;2023-11-21T11:40:13;15.73;;;7.35;;
26311;SDS011;14019;56.964;24.016;2023-11-21T11:43:01;20.27;;;7.60;;
26311;SDS011;14019;56.964;24.016;2023-11-21T11:45:48;18.38;;;7.13;;
26311;SDS011;14019;56.964;24.016;2023-11-21T11:48:40;22.88;;;7.80;;
26311;SDS011;14019;56.964;24.016;2023-11-21T11:51:26;19.58;;;8.02;;
26311;SDS011;14019;56.964;24.016;2023-11-21T11:54:13;26.83;;;9.57;;
26311;SDS011;14019;56.964;24.016;2023-11-21T11:57:02;22.05;;;8.57;;
26311;SDS011;14019;56.964;24.016;2023-11-21T12:02:58;18.60;;;8.63;;
26311;SDS011;14019;56.964;24.016;2023-11-21T12:05:47;23.70;;;9.30;;
26311;SDS011;14019;56.964;24.016;2023-11-21T12:08:36;21.27;;;9.10;;
26311;SDS011;14019;56.964;24.016;2023-11-21T12:11:25;28.50;;;9.80;;
26311;SDS011;14019;56.964;24.016;2023-11-21T12:14:16;26.10;;;9.43;;
26311;SDS011;14019;56.964;24.016;2023-11-21T12:17:03;32.80;;;9.98;;
26311;SDS011;14019;56.964;24.016;2023-11-21T12:19:49;28.33;;;9.60;;
26311;SDS011;14019;56.964;24.016;2023-11-21T12:22:37;24.67;;;8.68;;
26311;SDS011;14019;56.964;24.016;2023-11-21T12:25:28;23.45;;;9.65;;
26311;SDS011;14019;56.964;24.016;2023-11-21T12:28:15;23.40;;;8.73;;
26311;SDS011;14019;56.964;24.016;2023-11-21T12:31:02;20.20;;;8.48;;
26311;SDS011;14019;56.964;24.016;2023-11-21T12:34:11;22.55;;;9.05;;
26311;SDS011;14019;56.964;24.016;2023-11-21T12:37:06;21.90;;;8.20;;
26311;SDS011;14019;56.964;24.016;2023-11-21T12:39:52;22.77;;;8.25;;
26311;SDS011;14019;56.964;24.016;2023-11-21T12:42:43;21.75;;;8.38;;
26311;SDS011;14019;56.964;24.016;2023-11-21T12:45:30;22.55;;;8.60;;
26311;SDS011;14019;56.964;24.016;2023-11-21T12:48:16;21.13;;;7.97;;
26311;SDS011;14019;56.964;24.016;2023-11-21T12:51:13;20.10;;;8.37;;
26311;SDS011;14019;56.964;24.016;2023-11-21T12:56:49;17.17;;;7.28;;
26311;SDS011;14019;56.964;24.016;2023-11-21T12:59:35;24.60;;;9.25;;
26311;SDS011;14019;56.964;24.016;2023-11-21T13:02:27;21.20;;;8.73;;
26311;SDS011;14019;56.964;24.016;2023-11-21T13:05:22;22.90;;;8.82;;
26311;SDS011;14019;56.964;24.016;2023-11-21T13:08:09;23.25;;;8.07;;
26311;SDS011;14019;56.964;24.016;2023-11-21T13:10:58;18.50;;;8.30;;
26311;SDS011;14019;56.964;24.016;2023-11-21T13:13:45;17.05;;;8.02;;
26311;SDS011;14019;56.964;24.016;2023-11-21T13:16:32;17.67;;;7.85;;
26311;SDS011;14019;56.964;24.016;2023-11-21T13:19:18;19.10;;;7.47;;
26311;SDS011;14019;56.964;24.016;2023-11-21T13:22:07;16.33;;;7.38;;
26311;SDS011;14019;56.964;24.016;2023-11-21T13:24:56;21.50;;;7.80;;
26311;SDS011;14019;56.964;24.016;2023-11-21T13:27:42;18.58;;;8.10;;
26311;SDS011;14019;56.964;24.016;2023-11-21T13:30:30;20.83;;;7.95;;
26311;SDS011;14019;56.964;24.016;2023-11-21T13:33:19;18.85;;;7.35;;
26311;SDS011;14019;56.964;24.016;2023-11-21T13:36:13;19.15;;;7.88;;
26311;SDS011;14019;56.964;24.016;2023-11-21T13:39:01;21.08;;;8.63;;
26311;SDS011;14019;56.964;24.016;2023-11-21T13:41:54;14.70;;;6.68;;
26311;SDS011;14019;56.964;24.016;2023-11-21T13:44:42;22.67;;;9.05;;
26311;SDS011;14019;56.964;24.016;2023-11-21T13:47:31;22.50;;;9.02;;
26311;SDS011;14019;56.964;24.016;2023-11-21T13:50:19;22.48;;;9.70;;
26311;SDS011;14019;56.964;24.016;2023-11-21T13:53:12;25.25;;;11.18;;
26311;SDS011;14019;56.964;24.016;2023-11-21T13:56:07;27.98;;;11.65;;
26311;SDS011;14019;56.964;24.016;2023-11-21T13:58:54;31.48;;;12.05;;
26311;SDS011;14019;56.964;24.016;2023-11-21T14:01:41;27.23;;;11.32;;
26311;SDS011;14019;56.964;24.016;2023-11-21T14:04:45;25.42;;;10.45;;
26311;SDS011;14019;56.964;24.016;2023-11-21T14:07:45;29.98;;;11.18;;
26311;SDS011;14019;56.964;24.016;2023-11-21T14:10:33;27.67;;;10.25;;
26311;SDS011;14019;56.964;24.016;2023-11-21T14:13:28;22.33;;;9.40;;
26311;SDS011;14019;56.964;24.016;2023-11-21T14:16:15;24.88;;;9.27;;
26311;SDS011;14019;56.964;24.016;2023-11-21T14:19:02;30.20;;;9.60;;
26311;SDS011;14019;56.964;24.016;2023-11-21T14:22:00;25.00;;;10.05;;
26311;SDS011;14019;56.964;24.016;2023-11-21T14:24:47;28.80;;;10.63;;
26311;SDS011;14019;56.964;24.016;2023-11-21T14:27:35;26.60;;;11.73;;
26311;SDS011;14019;56.964;24.016;2023-11-21T14:30:21;25.40;;;10.98;;
26311;SDS011;14019;56.964;24.016;2023-11-21T14:33:08;28.63;;;11.40;;
26311;SDS011;14019;56.964;24.016;2023-11-21T14:35:58;23.13;;;9.68;;
26311;SDS011;14019;56.964;24.016;2023-11-21T14:38:44;23.55;;;9.43;;
26311;SDS011;14019;56.964;24.016;2023-11-21T14:41:31;25.45;;;9.43;;
26311;SDS011;14019;56.964;24.016;2023-11-21T14:44:44;29.23;;;10.02;;
26311;SDS011;14019;56.964;24.016;2023-11-21T14:47:30;25.48;;;9.43;;
26311;SDS011;14019;56.964;24.016;2023-11-21T14:50:18;20.88;;;8.40;;
26311;SDS011;14019;56.964;24.016;2023-11-21T14:53:22;16.45;;;7.90;;
26311;SDS011;14019;56.964;24.016;2023-11-21T14:56:28;20.67;;;8.30;;
26311;SDS011;14019;56.964;24.016;2023-11-21T14:59:19;17.23;;;7.30;;
26311;SDS011;14019;56.964;24.016;2023-11-21T15:02:06;17.58;;;7.72;;
26311;SDS011;14019;56.964;24.016;2023-11-21T15:05:03;16.40;;;7.35;;
26311;SDS011;14019;56.964;24.016;2023-11-21T15:07:50;15.93;;;7.53;;
26311;SDS011;14019;56.964;24.016;2023-11-21T15:10:40;19.67;;;7.45;;
26311;SDS011;14019;56.964;24.016;2023-11-21T15:13:34;23.90;;;8.25;;
26311;SDS011;14019;56.964;24.016;2023-11-21T15:16:23;19.60;;;7.80;;
26311;SDS011;14019;56.964;24.016;2023-11-21T15:19:11;23.30;;;8.38;;
26311;SDS011;14019;56.964;24.016;2023-11-21T15:22:03;21.10;;;8.05;;
26311;SDS011;14019;56.964;24.016;2023-11-21T15:24:50;16.90;;;7.53;;
26311;SDS011;14019;56.964;24.016;2023-11-21T15:27:38;18.95;;;7.88;;
26311;SDS011;14019;56.964;24.016;2023-11-21T15:30:26;20.15;;;8.50;;
26311;SDS011;14019;56.964;24.016;2023-11-21T15:33:12;16.98;;;7.65;;
26311;SDS011;14019;56.964;24.016;2023-11-21T15:35:58;15.02;;;7.03;;
26311;SDS011;14019;56.964;24.016;2023-11-21T15:38:44;19.33;;;7.35;;
26311;SDS011;14019;56.964;24.016;2023-11-21T15:41:30;17.83;;;7.13;;
26311;SDS011;14019;56.964;24.016;2023-11-21T15:44:17;17.30;;;6.47;;
26311;SDS011;14019;56.964;24.016;2023-11-21T15:47:04;23.10;;;6.63;;
26311;SDS011;14019;56.964;24.016;2023-11-21T15:49:54;15.98;;;5.50;;
26311;SDS011;14019;56.964;24.016;2023-11-21T15:52:39;15.35;;;6.35;;
26311;SDS011;14019;56.964;24.016;2023-11-21T15:55:42;12.05;;;5.75;;
26311;SDS011;14019;56.964;24.016;2023-11-21T15:58:28;15.90;;;6.18;;
26311;SDS011;14019;56.964;24.016;2023-11-21T16:01:14;14.30;;;5.90;;
26311;SDS011;14019;56.964;24.016;2023-11-21T16:04:01;15.45;;;5.43;;
26311;SDS011;14019;56.964;24.016;2023-11-21T16:06:48;11.02;;;5.70;;
26311;SDS011;14019;56.964;24.016;2023-11-21T16:09:35;15.57;;;6.10;;
26311;SDS011;14019;56.964;24.016;2023-11-21T16:12:23;17.77;;;6.38;;
26311;SDS011;14019;56.964;24.016;2023-11-21T16:15:10;17.55;;;6.57;;
26311;SDS011;14019;56.964;24.016;2023-11-21T16:17:57;20.58;;;7.03;;
26311;SDS011;14019;56.964;24.016;2023-11-21T16:20:43;16.67;;;6.50;;
26311;SDS011;14019;56.964;24.016;2023-11-21T16:23:30;18.45;;;6.75;;
26311;SDS011;14019;56.964;24.016;2023-11-21T16:26:45;16.30;;;6.40;;
26311;SDS011;14019;56.964;24.016;2023-11-21T16:29:35;19.60;;;6.97;;
26311;SDS011;14019;56.964;24.016;2023-11-21T16:32:24;14.90;;;6.25;;
26311;SDS011;14019;56.964;24.016;2023-11-21T16:35:10;18.33;;;6.85;;